createdAt,value
2018-06-02T00:00:05.846Z,19.48
2018-06-02T00:01:05.850Z,19.38
2018-06-02T00:02:05.872Z,19.39
2018-06-02T00:03:05.880Z,19.43
2018-06-02T00:04:05.888Z,19.50
2018-06-02T00:05:05.932Z,19.47
2018-06-02T00:06:05.924Z,19.61
2018-06-02T00:07:05.926Z,19.43
2018-06-02T00:08:05.940Z,19.36
2018-06-02T00:09:05.955Z,19.36
2018-06-02T00:10:06.000Z,19.13
2018-06-02T00:11:05.996Z,19.08
2018-06-02T00:12:05.989Z,19.14
2018-06-02T00:13:06.006Z,19.15
2018-06-02T00:14:06.028Z,19.15
2018-06-02T00:15:06.032Z,19.13
2018-06-02T00:16:06.042Z,19.18
2018-06-02T00:17:06.066Z,19.17
2018-06-02T00:18:06.069Z,19.28
2018-06-02T00:19:06.078Z,19.29
2018-06-02T00:20:06.134Z,19.32
2018-06-02T00:21:06.111Z,19.10
2018-06-02T00:22:06.126Z,19.15
2018-06-02T00:23:06.136Z,19.25
2018-06-02T00:24:06.149Z,19.31
2018-06-02T00:25:06.160Z,19.35
2018-06-02T00:26:06.176Z,19.40
2018-06-02T00:27:06.185Z,19.35
2018-06-02T00:28:06.200Z,19.47
2018-06-02T00:29:06.449Z,19.40
2018-06-02T00:30:06.877Z,19.39
2018-06-02T00:31:06.242Z,19.39
2018-06-02T00:32:06.253Z,19.36
2018-06-02T00:33:06.264Z,19.33
2018-06-02T00:34:06.275Z,19.29
2018-06-02T00:35:06.409Z,19.31
2018-06-02T00:36:06.332Z,19.32
2018-06-02T00:37:06.314Z,19.36
2018-06-02T00:38:06.331Z,19.25
2018-06-02T00:39:06.343Z,19.32
2018-06-02T00:40:06.362Z,19.23
2018-06-02T00:41:06.396Z,19.18
2018-06-02T00:42:06.709Z,18.98
2018-06-02T00:43:06.394Z,18.92
2018-06-02T00:44:06.422Z,18.98
2018-06-02T00:45:06.425Z,19.06
2018-06-02T00:46:06.456Z,19.10
2018-06-02T00:47:06.445Z,18.99
2018-06-02T00:48:06.454Z,19.11
2018-06-02T00:49:06.472Z,19.02
2018-06-02T00:50:06.502Z,19.02
2018-06-02T00:51:06.496Z,18.87
2018-06-02T00:52:06.528Z,18.87
2018-06-02T00:53:06.523Z,18.79
2018-06-02T00:54:06.535Z,18.95
2018-06-02T00:55:06.564Z,18.91
2018-06-02T00:56:06.561Z,18.86
2018-06-02T00:57:06.572Z,18.82
2018-06-02T00:58:06.597Z,18.91
2018-06-02T00:59:06.606Z,18.86
2018-06-02T01:00:06.609Z,18.79
2018-06-02T01:01:06.639Z,18.84
2018-06-02T01:02:06.636Z,18.83
2018-06-02T01:03:06.676Z,18.84
2018-06-02T01:04:06.663Z,18.77
2018-06-02T01:05:06.681Z,18.87
2018-06-02T01:06:06.687Z,18.86
2018-06-02T01:07:06.700Z,18.76
2018-06-02T01:08:06.721Z,18.74
2018-06-02T01:09:06.726Z,18.82
2018-06-02T01:10:06.741Z,18.72
2018-06-02T01:11:06.780Z,18.70
2018-06-02T01:12:06.767Z,18.61
2018-06-02T01:13:06.785Z,18.65
2018-06-02T01:14:06.791Z,18.46
2018-06-02T01:15:06.801Z,18.37
2018-06-02T01:16:06.847Z,18.27
2018-06-02T01:17:06.838Z,18.10
2018-06-02T01:18:06.848Z,18.12
2018-06-02T01:19:06.859Z,18.17
2018-06-02T01:20:06.864Z,18.15
2018-06-02T01:21:06.876Z,18.21
2018-06-02T01:22:06.896Z,18.27
2018-06-02T01:23:06.900Z,18.28
2018-06-02T01:24:06.917Z,18.29
2018-06-02T01:25:06.959Z,18.43
2018-06-02T01:26:07.130Z,18.37
2018-06-02T01:27:06.957Z,18.34
2018-06-02T01:28:06.970Z,18.28
2018-06-02T01:29:06.977Z,18.10
2018-06-02T01:30:06.991Z,18.13
2018-06-02T01:31:07.039Z,18.13
2018-06-02T01:32:07.016Z,18.09
2018-06-02T01:33:07.031Z,18.13
2018-06-02T01:34:07.044Z,18.13
2018-06-02T01:35:07.054Z,18.10
2018-06-02T01:36:07.065Z,18.10
2018-06-02T01:37:07.075Z,18.03
2018-06-02T01:38:07.092Z,18.09
2018-06-02T01:39:07.109Z,17.95
2018-06-02T01:40:07.141Z,17.82
2018-06-02T01:41:07.133Z,17.78
2018-06-02T01:42:07.144Z,17.63
2018-06-02T01:43:07.148Z,17.53
2018-06-02T01:44:07.163Z,17.32
2018-06-02T01:45:07.176Z,17.29
2018-06-02T01:46:07.191Z,17.38
2018-06-02T01:47:07.206Z,17.38
2018-06-02T01:48:07.246Z,17.28
2018-06-02T01:49:07.224Z,17.22
2018-06-02T01:50:07.235Z,17.13
2018-06-02T01:51:07.246Z,17.14
2018-06-02T01:52:07.265Z,17.14
2018-06-02T01:53:07.278Z,17.18
2018-06-02T01:54:07.286Z,17.22
2018-06-02T01:55:07.312Z,17.26
2018-06-02T01:56:07.307Z,17.29
2018-06-02T01:57:07.319Z,17.30
2018-06-02T01:58:07.335Z,17.29
2018-06-02T01:59:07.344Z,17.26
2018-06-02T02:00:07.361Z,17.33
2018-06-02T02:01:07.368Z,17.38
2018-06-02T02:02:07.385Z,17.38
2018-06-02T02:03:07.393Z,17.36
2018-06-02T02:04:07.405Z,17.35
2018-06-02T02:05:07.418Z,17.48
2018-06-02T02:06:07.429Z,17.44
2018-06-02T02:07:07.443Z,17.63
2018-06-02T02:08:07.451Z,17.69
2018-06-02T02:09:07.492Z,17.62
2018-06-02T02:10:09.046Z,17.62
2018-06-02T02:11:07.489Z,17.55
2018-06-02T02:12:07.505Z,17.59
2018-06-02T02:13:07.512Z,17.57
2018-06-02T02:14:07.525Z,17.59
2018-06-02T02:15:07.543Z,17.55
2018-06-02T02:16:07.553Z,17.59
2018-06-02T02:17:07.566Z,17.63
2018-06-02T02:18:07.577Z,17.69
2018-06-02T02:19:07.590Z,17.70
2018-06-02T02:20:07.599Z,17.67
2018-06-02T02:21:07.612Z,17.55
2018-06-02T02:22:07.623Z,17.66
2018-06-02T02:23:07.632Z,17.81
2018-06-02T02:24:07.648Z,17.71
2018-06-02T02:25:07.666Z,17.70
2018-06-02T02:26:07.671Z,17.57
2018-06-02T02:27:07.704Z,17.44
2018-06-02T02:28:07.693Z,17.36
2018-06-02T02:29:07.709Z,17.23
2018-06-02T02:30:07.720Z,17.15
2018-06-02T02:31:07.733Z,17.28
2018-06-02T02:32:07.768Z,17.28
2018-06-02T02:33:07.753Z,17.25
2018-06-02T02:34:07.773Z,17.23
2018-06-02T02:35:07.775Z,17.08
2018-06-02T02:36:07.802Z,17.13
2018-06-02T02:37:07.811Z,17.04
2018-06-02T02:38:07.815Z,17.08
2018-06-02T02:39:07.823Z,17.13
2018-06-02T02:40:07.835Z,17.18
2018-06-02T02:41:07.850Z,17.15
2018-06-02T02:42:07.860Z,17.23
2018-06-02T02:43:07.882Z,17.20
2018-06-02T02:44:07.884Z,17.11
2018-06-02T02:45:07.905Z,17.14
2018-06-02T02:46:07.911Z,17.04
2018-06-02T02:47:07.925Z,17.10
2018-06-02T02:48:07.938Z,17.06
2018-06-02T02:49:07.944Z,17.03
2018-06-02T02:50:07.969Z,16.93
2018-06-02T02:51:07.974Z,16.89
2018-06-02T02:52:07.979Z,16.95
2018-06-02T02:53:07.990Z,16.85
2018-06-02T02:54:08.025Z,16.83
2018-06-02T02:55:08.011Z,16.77
2018-06-02T02:56:08.036Z,16.85
2018-06-02T02:57:08.040Z,16.90
2018-06-02T02:58:08.050Z,16.85
2018-06-02T02:59:08.066Z,16.77
2018-06-02T03:00:08.074Z,16.77
2018-06-02T03:01:08.084Z,16.67
2018-06-02T03:02:08.097Z,16.62
2018-06-02T03:03:08.122Z,16.52
2018-06-02T03:04:08.119Z,16.45
2018-06-02T03:05:08.134Z,16.48
2018-06-02T03:06:08.147Z,16.55
2018-06-02T03:07:08.159Z,16.63
2018-06-02T03:08:08.166Z,16.68
2018-06-02T03:09:08.178Z,16.73
2018-06-02T03:10:08.195Z,16.73
2018-06-02T03:11:08.200Z,16.59
2018-06-02T03:12:08.231Z,16.60
2018-06-02T03:13:08.228Z,16.67
2018-06-02T03:14:08.237Z,16.70
2018-06-02T03:15:08.248Z,16.58
2018-06-02T03:16:08.265Z,16.59
2018-06-02T03:17:08.274Z,16.53
2018-06-02T03:18:08.294Z,16.63
2018-06-02T03:19:08.298Z,16.62
2018-06-02T03:20:08.305Z,16.67
2018-06-02T03:21:08.321Z,16.78
2018-06-02T03:22:08.337Z,16.81
2018-06-02T03:23:08.344Z,16.71
2018-06-02T03:24:08.351Z,16.53
2018-06-02T03:25:08.368Z,16.50
2018-06-02T03:26:08.378Z,16.58
2018-06-02T03:27:08.387Z,16.68
2018-06-02T03:28:08.400Z,16.74
2018-06-02T03:29:08.438Z,16.73
2018-06-02T03:30:08.422Z,16.80
2018-06-02T03:31:08.431Z,16.83
2018-06-02T03:32:08.451Z,16.71
2018-06-02T03:33:08.457Z,16.88
2018-06-02T03:34:08.467Z,16.83
2018-06-02T03:35:08.494Z,16.73
2018-06-02T03:36:08.493Z,16.74
2018-06-02T03:37:08.507Z,16.73
2018-06-02T03:38:08.519Z,16.85
2018-06-02T03:39:08.524Z,16.75
2018-06-02T03:40:08.538Z,16.81
2018-06-02T03:41:08.549Z,16.65
2018-06-02T03:42:08.563Z,16.68
2018-06-02T03:43:08.573Z,16.74
2018-06-02T03:44:08.614Z,16.74
2018-06-02T03:45:08.600Z,16.71
2018-06-02T03:46:08.622Z,16.62
2018-06-02T03:47:08.618Z,16.65
2018-06-02T03:48:08.631Z,16.58
2018-06-02T03:49:08.643Z,16.58
2018-06-02T03:50:08.652Z,16.56
2018-06-02T03:51:08.662Z,16.70
2018-06-02T03:52:08.673Z,16.62
2018-06-02T03:53:08.716Z,16.71
2018-06-02T03:54:08.700Z,16.74
2018-06-02T03:55:08.725Z,16.81
2018-06-02T03:56:08.719Z,16.85
2018-06-02T03:57:08.730Z,16.85
2018-06-02T03:58:08.744Z,16.73
2018-06-02T03:59:08.759Z,16.78
2018-06-02T04:00:08.766Z,16.85
2018-06-02T04:01:08.781Z,16.78
2018-06-02T04:02:08.791Z,16.83
2018-06-02T04:03:08.809Z,16.74
2018-06-02T04:04:08.818Z,16.71
2018-06-02T04:05:08.825Z,16.67
2018-06-02T04:06:08.838Z,16.56
2018-06-02T04:07:08.848Z,16.58
2018-06-02T04:08:08.859Z,16.49
2018-06-02T04:09:08.883Z,16.52
2018-06-02T04:10:08.884Z,16.38
2018-06-02T04:11:08.894Z,16.48
2018-06-02T04:12:08.906Z,16.45
2018-06-02T04:13:08.920Z,16.55
2018-06-02T04:14:08.929Z,16.55
2018-06-02T04:15:08.947Z,16.62
2018-06-02T04:16:08.956Z,16.75
2018-06-02T04:17:08.965Z,16.75
2018-06-02T04:18:09.028Z,16.68
2018-06-02T04:19:08.984Z,16.73
2018-06-02T04:20:08.998Z,16.85
2018-06-02T04:21:09.011Z,16.83
2018-06-02T04:22:09.022Z,16.80
2018-06-02T04:23:09.031Z,16.75
2018-06-02T04:24:09.049Z,16.71
2018-06-02T04:25:09.060Z,16.77
2018-06-02T04:26:09.070Z,16.71
2018-06-02T04:27:09.080Z,16.78
2018-06-02T04:28:09.094Z,16.71
2018-06-02T04:29:09.108Z,16.71
2018-06-02T04:30:09.115Z,16.62
2018-06-02T04:31:09.129Z,16.62
2018-06-02T04:32:09.138Z,16.56
2018-06-02T04:33:09.148Z,16.55
2018-06-02T04:34:09.165Z,16.45
2018-06-02T04:35:09.183Z,16.60
2018-06-02T04:36:09.213Z,16.53
2018-06-02T04:37:09.197Z,16.65
2018-06-02T04:38:09.209Z,16.59
2018-06-02T04:39:09.223Z,16.52
2018-06-02T04:40:09.229Z,16.49
2018-06-02T04:41:09.245Z,16.48
2018-06-02T04:42:09.251Z,16.48
2018-06-02T04:43:09.266Z,16.42
2018-06-02T04:44:09.307Z,16.41
2018-06-02T04:45:09.288Z,16.38
2018-06-02T04:46:09.298Z,16.31
2018-06-02T04:47:09.311Z,16.38
2018-06-02T04:48:09.320Z,16.33
2018-06-02T04:49:09.332Z,16.44
2018-06-02T04:50:09.349Z,16.45
2018-06-02T04:51:09.358Z,16.49
2018-06-02T04:52:09.371Z,16.52
2018-06-02T04:53:09.377Z,16.49
2018-06-02T04:54:09.395Z,16.50
2018-06-02T04:55:09.400Z,16.62
2018-06-02T04:56:09.415Z,16.80
2018-06-02T04:57:09.428Z,16.75
2018-06-02T04:58:09.453Z,16.85
2018-06-02T04:59:09.451Z,16.89
2018-06-02T05:00:09.465Z,16.81
2018-06-02T05:01:09.481Z,16.85
2018-06-02T05:02:09.486Z,16.85
2018-06-02T05:03:09.501Z,16.90
2018-06-02T05:04:09.506Z,17.10
2018-06-02T05:05:09.522Z,17.13
2018-06-02T05:06:09.542Z,17.11
2018-06-02T05:07:09.543Z,17.13
2018-06-02T05:08:09.553Z,17.10
2018-06-02T05:09:09.565Z,17.17
2018-06-02T05:10:09.575Z,17.22
2018-06-02T05:11:09.595Z,17.29
2018-06-02T05:12:09.599Z,17.36
2018-06-02T05:13:09.620Z,17.43
2018-06-02T05:14:09.625Z,17.47
2018-06-02T05:15:09.638Z,17.53
2018-06-02T05:16:09.647Z,17.55
2018-06-02T05:17:09.667Z,17.74
2018-06-02T05:18:09.671Z,17.69
2018-06-02T05:19:09.680Z,17.64
2018-06-02T05:20:09.697Z,17.63
2018-06-02T05:21:09.706Z,17.55
2018-06-02T05:22:09.721Z,17.50
2018-06-02T05:23:09.730Z,17.44
2018-06-02T05:24:09.752Z,17.47
2018-06-02T05:25:09.765Z,17.47
2018-06-02T05:26:09.771Z,17.50
2018-06-02T05:27:09.777Z,17.55
2018-06-02T05:28:09.788Z,17.62
2018-06-02T05:29:09.837Z,17.81
2018-06-02T05:30:09.817Z,17.87
2018-06-02T05:31:09.822Z,17.88
2018-06-02T05:32:09.850Z,17.95
2018-06-02T05:33:09.850Z,18.03
2018-06-02T05:34:09.861Z,18.00
2018-06-02T05:35:09.871Z,18.00
2018-06-02T05:36:09.884Z,18.10
2018-06-02T05:37:09.897Z,18.13
2018-06-02T05:38:09.906Z,18.10
2018-06-02T05:39:09.964Z,18.09
2018-06-02T05:40:09.952Z,18.12
2018-06-02T05:41:09.948Z,18.15
2018-06-02T05:42:09.955Z,18.22
2018-06-02T05:43:09.974Z,18.15
2018-06-02T05:44:09.984Z,17.97
2018-06-02T05:45:09.994Z,17.85
2018-06-02T05:46:10.029Z,17.91
2018-06-02T05:47:10.016Z,17.89
2018-06-02T05:48:10.030Z,17.94
2018-06-02T05:49:10.039Z,17.99
2018-06-02T05:50:10.089Z,18.02
2018-06-02T05:51:10.064Z,18.09
2018-06-02T05:52:10.075Z,17.99
2018-06-02T05:53:10.087Z,17.99
2018-06-02T05:54:10.102Z,18.10
2018-06-02T05:55:10.110Z,18.12
2018-06-02T05:56:10.127Z,18.18
2018-06-02T05:57:10.145Z,18.28
2018-06-02T05:58:10.147Z,18.28
2018-06-02T05:59:10.160Z,18.36
2018-06-02T06:00:10.175Z,18.36
2018-06-02T06:01:10.186Z,18.40
2018-06-02T06:02:10.198Z,18.21
2018-06-02T06:03:10.207Z,18.25
2018-06-02T06:04:10.223Z,18.31
2018-06-02T06:05:10.231Z,18.33
2018-06-02T06:06:10.247Z,18.34
2018-06-02T06:07:10.254Z,18.44
2018-06-02T06:08:10.267Z,18.57
2018-06-02T06:09:10.322Z,18.52
2018-06-02T06:10:10.296Z,18.61
2018-06-02T06:11:10.308Z,18.61
2018-06-02T06:12:10.313Z,18.77
2018-06-02T06:13:10.326Z,18.67
2018-06-02T06:14:10.343Z,18.70
2018-06-02T06:15:10.351Z,18.86
2018-06-02T06:16:10.365Z,18.86
2018-06-02T06:17:10.377Z,18.80
2018-06-02T06:18:10.391Z,18.77
2018-06-02T06:19:10.404Z,18.80
2018-06-02T06:20:10.422Z,18.84
2018-06-02T06:21:10.428Z,18.79
2018-06-02T06:22:10.437Z,18.84
2018-06-02T06:23:10.450Z,18.86
2018-06-02T06:24:10.461Z,18.90
2018-06-02T06:25:10.479Z,18.98
2018-06-02T06:26:10.487Z,19.02
2018-06-02T06:27:10.497Z,18.98
2018-06-02T06:28:10.510Z,19.11
2018-06-02T06:29:10.525Z,19.14
2018-06-02T06:30:10.538Z,19.28
2018-06-02T06:31:10.544Z,19.17
2018-06-02T06:32:10.560Z,19.18
2018-06-02T06:33:10.643Z,19.14
2018-06-02T06:34:10.585Z,19.14
2018-06-02T06:35:10.609Z,19.18
2018-06-02T06:36:10.613Z,19.32
2018-06-02T06:37:10.642Z,19.18
2018-06-02T06:38:10.666Z,19.23
2018-06-02T06:39:10.704Z,19.24
2018-06-02T06:40:10.660Z,19.39
2018-06-02T06:41:10.671Z,19.31
2018-06-02T06:42:10.686Z,19.28
2018-06-02T06:43:10.696Z,19.31
2018-06-02T06:44:10.709Z,19.14
2018-06-02T06:45:10.750Z,19.13
2018-06-02T06:46:10.741Z,19.31
2018-06-02T06:47:10.745Z,19.25
2018-06-02T06:48:10.766Z,19.15
2018-06-02T06:49:10.775Z,19.25
2018-06-02T06:50:10.785Z,19.29
2018-06-02T06:51:10.797Z,19.43
2018-06-02T06:52:10.813Z,19.42
2018-06-02T06:53:10.821Z,19.42
2018-06-02T06:54:10.833Z,19.51
2018-06-02T06:55:10.846Z,19.50
2018-06-02T06:56:10.869Z,19.55
2018-06-02T06:57:10.871Z,19.57
2018-06-02T06:58:10.885Z,19.47
2018-06-02T06:59:10.901Z,19.60
2018-06-02T07:00:10.909Z,19.61
2018-06-02T07:01:10.921Z,19.55
2018-06-02T07:02:12.073Z,19.60
2018-06-02T07:03:10.948Z,19.54
2018-06-02T07:04:10.976Z,19.40
2018-06-02T07:05:10.973Z,19.42
2018-06-02T07:06:10.984Z,19.46
2018-06-02T07:07:11.003Z,19.36
2018-06-02T07:08:11.038Z,19.47
2018-06-02T07:09:11.026Z,19.53
2018-06-02T07:10:11.037Z,19.57
2018-06-02T07:11:11.047Z,19.54
2018-06-02T07:12:11.060Z,19.72
2018-06-02T07:13:11.075Z,19.76
2018-06-02T07:14:11.090Z,19.88
2018-06-02T07:15:11.100Z,19.87
2018-06-02T07:16:11.110Z,19.83
2018-06-02T07:17:11.120Z,19.98
2018-06-02T07:18:11.643Z,20.05
2018-06-02T07:19:11.162Z,20.09
2018-06-02T07:20:11.337Z,20.21
2018-06-02T07:21:11.172Z,20.18
2018-06-02T07:22:11.222Z,20.31
2018-06-02T07:23:11.196Z,20.25
2018-06-02T07:24:11.222Z,20.23
2018-06-02T07:25:11.226Z,20.24
2018-06-02T07:26:11.239Z,20.31
2018-06-02T07:27:11.252Z,20.47
2018-06-02T07:28:11.265Z,20.49
2018-06-02T07:29:11.328Z,20.49
2018-06-02T07:30:11.290Z,20.43
2018-06-02T07:31:11.300Z,20.35
2018-06-02T07:32:11.314Z,20.33
2018-06-02T07:33:11.327Z,20.23
2018-06-02T07:34:11.342Z,20.13
2018-06-02T07:35:11.355Z,20.15
2018-06-02T07:36:11.368Z,20.15
2018-06-02T07:37:11.382Z,20.13
2018-06-02T07:38:11.589Z,20.16
2018-06-02T07:39:11.415Z,20.12
2018-06-02T07:40:11.417Z,20.15
2018-06-02T07:41:11.434Z,20.15
2018-06-02T07:42:11.443Z,20.06
2018-06-02T07:43:11.465Z,20.03
2018-06-02T07:44:11.471Z,19.94
2018-06-02T07:45:11.491Z,19.90
2018-06-02T07:46:11.495Z,20.02
2018-06-02T07:47:11.510Z,19.95
2018-06-02T07:48:11.524Z,20.03
2018-06-02T07:49:11.538Z,20.10
2018-06-02T07:50:11.550Z,20.15
2018-06-02T07:51:11.564Z,20.21
2018-06-02T07:52:11.609Z,20.27
2018-06-02T07:53:11.586Z,20.34
2018-06-02T07:54:11.602Z,20.51
2018-06-02T07:55:11.613Z,20.42
2018-06-02T07:56:11.625Z,20.62
2018-06-02T07:57:11.755Z,20.43
2018-06-02T07:58:11.652Z,20.58
2018-06-02T07:59:11.683Z,20.59
2018-06-02T08:00:11.680Z,20.69
2018-06-02T08:01:11.696Z,20.72
2018-06-02T08:02:11.710Z,20.68
2018-06-02T08:03:11.721Z,20.86
2018-06-02T08:04:11.732Z,20.95
2018-06-02T08:05:11.749Z,21.24
2018-06-02T08:06:11.800Z,21.35
2018-06-02T08:07:11.779Z,21.38
2018-06-02T08:08:11.788Z,21.39
2018-06-02T08:09:11.801Z,21.36
2018-06-02T08:10:11.842Z,21.39
2018-06-02T08:11:11.831Z,21.26
2018-06-02T08:12:11.840Z,21.20
2018-06-02T08:13:11.859Z,21.08
2018-06-02T08:14:11.868Z,21.17
2018-06-02T08:15:11.881Z,21.08
2018-06-02T08:16:11.905Z,20.84
2018-06-02T08:17:11.909Z,20.74
2018-06-02T08:18:11.934Z,20.61
2018-06-02T08:19:11.941Z,20.51
2018-06-02T08:20:11.953Z,20.50
2018-06-02T08:21:11.964Z,20.59
2018-06-02T08:22:11.977Z,20.42
2018-06-02T08:23:11.988Z,20.31
2018-06-02T08:24:12.004Z,20.46
2018-06-02T08:25:12.022Z,20.38
2018-06-02T08:26:12.034Z,20.47
2018-06-02T08:27:12.044Z,20.62
2018-06-02T08:28:12.059Z,20.69
2018-06-02T08:29:12.079Z,20.89
2018-06-02T08:30:12.087Z,20.95
2018-06-02T08:31:12.102Z,21.13
2018-06-02T08:32:12.117Z,21.16
2018-06-02T08:33:12.131Z,21.32
2018-06-02T08:34:12.150Z,21.48
2018-06-02T08:35:12.153Z,21.50
2018-06-02T08:36:12.167Z,21.56
2018-06-02T08:37:12.183Z,21.38
2018-06-02T08:38:12.196Z,21.34
2018-06-02T08:39:12.207Z,21.35
2018-06-02T08:40:12.221Z,21.54
2018-06-02T08:41:12.235Z,21.45
2018-06-02T08:42:12.247Z,21.57
2018-06-02T08:43:12.306Z,21.61
2018-06-02T08:44:12.280Z,21.81
2018-06-02T08:45:12.289Z,21.90
2018-06-02T08:46:12.301Z,22.07
2018-06-02T08:47:12.314Z,22.04
2018-06-02T08:48:12.329Z,22.04
2018-06-02T08:49:12.346Z,22.09
2018-06-02T08:50:12.360Z,22.02
2018-06-02T08:51:12.382Z,21.95
2018-06-02T08:52:12.394Z,21.95
2018-06-02T08:53:12.414Z,21.91
2018-06-02T08:54:12.414Z,21.98
2018-06-02T08:55:12.426Z,21.72
2018-06-02T08:56:12.439Z,21.64
2018-06-02T08:57:12.453Z,21.78
2018-06-02T08:58:12.472Z,21.78
2018-06-02T08:59:12.479Z,21.75
2018-06-02T09:00:12.493Z,21.71
2018-06-02T09:01:12.531Z,21.61
2018-06-02T09:02:12.526Z,21.60
2018-06-02T09:03:12.540Z,21.46
2018-06-02T09:04:12.552Z,21.48
2018-06-02T09:05:12.565Z,21.50
2018-06-02T09:06:12.585Z,21.44
2018-06-02T09:07:12.594Z,21.36
2018-06-02T09:08:12.607Z,21.39
2018-06-02T09:09:12.621Z,21.48
2018-06-02T09:10:12.639Z,21.48
2018-06-02T09:11:12.656Z,21.53
2018-06-02T09:12:12.663Z,21.63
2018-06-02T09:13:12.677Z,21.71
2018-06-02T09:14:12.693Z,21.82
2018-06-02T09:15:12.714Z,22.01
2018-06-02T09:16:12.746Z,21.98
2018-06-02T09:17:12.732Z,22.10
2018-06-02T09:18:12.747Z,22.19
2018-06-02T09:19:12.764Z,22.37
2018-06-02T09:20:12.776Z,22.52
2018-06-02T09:21:12.792Z,22.54
2018-06-02T09:22:12.801Z,22.62
2018-06-02T09:23:12.829Z,22.77
2018-06-02T09:24:12.833Z,22.52
2018-06-02T09:25:12.845Z,22.52
2018-06-02T09:26:13.237Z,22.46
2018-06-02T09:27:12.880Z,22.54
2018-06-02T09:28:12.895Z,22.64
2018-06-02T09:29:12.906Z,22.56
2018-06-02T09:30:12.915Z,22.50
2018-06-02T09:31:12.933Z,22.52
2018-06-02T09:32:12.959Z,22.74
2018-06-02T09:33:12.967Z,22.80
2018-06-02T09:34:12.973Z,22.94
2018-06-02T09:35:13.117Z,22.96
2018-06-02T09:36:13.003Z,22.97
2018-06-02T09:37:13.013Z,22.94
2018-06-02T09:38:13.035Z,22.99
2018-06-02T09:39:13.047Z,23.04
2018-06-02T09:40:13.062Z,23.01
2018-06-02T09:41:13.073Z,22.97
2018-06-02T09:42:13.092Z,22.92
2018-06-02T09:43:13.119Z,22.93
2018-06-02T09:44:13.122Z,22.83
2018-06-02T09:45:13.131Z,22.84
2018-06-02T09:46:13.147Z,22.83
2018-06-02T09:47:13.157Z,22.57
2018-06-02T09:48:13.178Z,22.50
2018-06-02T09:49:13.189Z,22.44
2018-06-02T09:50:13.208Z,22.37
2018-06-02T09:51:13.216Z,22.19
2018-06-02T09:52:13.234Z,22.17
2018-06-02T09:53:13.246Z,22.19
2018-06-02T09:54:13.268Z,22.16
2018-06-02T09:55:13.278Z,22.19
2018-06-02T09:56:13.294Z,22.25
2018-06-02T09:57:13.312Z,22.25
2018-06-02T09:58:13.330Z,22.27
2018-06-02T09:59:13.334Z,22.27
2018-06-02T10:00:13.356Z,22.19
2018-06-02T10:01:13.362Z,22.32
2018-06-02T10:02:13.640Z,22.37
2018-06-02T10:03:13.395Z,22.31
2018-06-02T10:04:13.407Z,22.27
2018-06-02T10:05:13.422Z,22.22
2018-06-02T10:06:13.471Z,22.32
2018-06-02T10:07:13.455Z,22.39
2018-06-02T10:08:22.293Z,22.35
2018-06-02T10:10:21.332Z,22.62
2018-06-02T10:11:20.297Z,22.75
2018-06-02T10:12:20.477Z,22.89
2018-06-02T10:13:20.658Z,22.99
2018-06-02T10:14:20.472Z,22.84
2018-06-02T10:15:20.486Z,23.05
2018-06-02T10:16:20.337Z,22.90
2018-06-02T10:17:20.355Z,22.86
2018-06-02T10:18:20.448Z,22.84
2018-06-02T10:19:20.381Z,22.82
2018-06-02T10:20:20.371Z,22.71
2018-06-02T10:21:20.887Z,22.84
2018-06-02T10:22:20.407Z,23.04
2018-06-02T10:23:20.471Z,23.34
2018-06-02T10:24:20.432Z,23.49
2018-06-02T10:25:20.443Z,23.57
2018-06-02T10:26:20.458Z,23.53
2018-06-02T10:27:20.479Z,23.67
2018-06-02T10:28:20.498Z,23.65
2018-06-02T10:29:20.984Z,23.62
2018-06-02T10:30:20.515Z,23.61
2018-06-02T10:31:20.530Z,23.52
2018-06-02T10:32:20.608Z,23.53
2018-06-02T10:33:20.644Z,23.53
2018-06-02T10:34:20.579Z,23.65
2018-06-02T10:35:20.588Z,23.65
2018-06-02T10:36:20.608Z,23.83
2018-06-02T10:37:20.683Z,23.98
2018-06-02T10:38:20.642Z,24.24
2018-06-02T10:39:20.646Z,24.39
2018-06-02T10:40:20.679Z,24.47
2018-06-02T10:41:20.683Z,24.53
2018-06-02T10:42:20.693Z,24.49
2018-06-02T10:43:20.709Z,24.26
2018-06-02T10:44:20.729Z,24.17
2018-06-02T10:45:20.752Z,23.90
2018-06-02T10:46:20.756Z,23.87
2018-06-02T10:47:20.772Z,23.79
2018-06-02T10:48:20.791Z,23.92
2018-06-02T10:49:20.821Z,23.98
2018-06-02T10:50:20.837Z,24.20
2018-06-02T10:51:20.894Z,24.27
2018-06-02T10:52:20.841Z,24.50
2018-06-02T10:53:20.861Z,24.52
2018-06-02T10:54:20.880Z,24.35
2018-06-02T10:55:20.894Z,24.20
2018-06-02T10:56:20.934Z,24.17
2018-06-02T10:57:20.921Z,24.10
2018-06-02T10:58:20.943Z,24.01
2018-06-02T10:59:20.959Z,24.02
2018-06-02T11:00:20.971Z,23.95
2018-06-02T11:01:20.980Z,23.76
2018-06-02T11:02:20.998Z,23.70
2018-06-02T11:03:22.982Z,23.65
2018-06-02T11:04:21.054Z,23.61
2018-06-02T11:05:21.044Z,23.70
2018-06-02T11:06:21.075Z,23.68
2018-06-02T11:07:21.074Z,23.70
2018-06-02T11:08:21.099Z,23.68
2018-06-02T11:09:21.108Z,23.67
2018-06-02T11:10:21.142Z,23.55
2018-06-02T11:11:21.151Z,23.53
2018-06-02T11:12:21.152Z,23.49
2018-06-02T11:13:21.169Z,23.43
2018-06-02T11:14:21.187Z,23.29
2018-06-02T11:15:21.195Z,23.42
2018-06-02T11:16:21.218Z,23.34
2018-06-02T11:17:21.242Z,23.24
2018-06-02T11:18:21.249Z,23.29
2018-06-02T11:19:21.274Z,23.52
2018-06-02T11:20:21.271Z,23.79
2018-06-02T11:21:21.297Z,24.22
2018-06-02T11:22:21.308Z,24.52
2018-06-02T11:23:21.322Z,24.88
2018-06-02T11:24:21.334Z,25.15
2018-06-02T11:25:21.349Z,25.32
2018-06-02T11:26:21.365Z,25.69
2018-06-02T11:27:21.392Z,26.04
2018-06-02T11:28:21.400Z,26.32
2018-06-02T11:29:21.407Z,26.80
2018-06-02T11:30:21.442Z,27.33
2018-06-02T11:31:21.440Z,27.67
2018-06-02T11:32:21.456Z,27.64
2018-06-02T11:33:21.475Z,27.05
2018-06-02T11:34:21.487Z,26.46
2018-06-02T11:35:21.522Z,26.31
2018-06-02T11:36:21.527Z,25.98
2018-06-02T11:37:21.540Z,25.79
2018-06-02T11:38:21.560Z,25.65
2018-06-02T11:39:21.579Z,25.32
2018-06-02T11:40:21.652Z,25.07
2018-06-02T11:41:21.610Z,24.83
2018-06-02T11:42:21.632Z,24.97
2018-06-02T11:43:21.648Z,25.59
2018-06-02T11:44:21.667Z,25.50
2018-06-02T11:45:21.691Z,25.44
2018-06-02T11:46:21.698Z,25.56
2018-06-02T11:47:21.715Z,26.44
2018-06-02T11:48:21.738Z,27.19
2018-06-02T11:49:21.753Z,27.74
2018-06-02T11:50:21.774Z,27.21
2018-06-02T11:51:21.786Z,27.77
2018-06-02T11:52:21.811Z,28.90
2018-06-02T11:53:21.823Z,29.71
2018-06-02T11:54:21.842Z,29.01
2018-06-02T11:55:21.862Z,28.47
2018-06-02T11:56:21.895Z,28.78
2018-06-02T11:57:21.907Z,29.96
2018-06-02T11:58:21.923Z,30.87
2018-06-02T11:59:21.939Z,31.15
2018-06-02T12:00:21.960Z,31.79
2018-06-02T12:01:22.001Z,31.09
2018-06-02T12:02:22.005Z,31.33
2018-06-02T12:03:22.032Z,30.40
2018-06-02T12:04:22.044Z,29.75
2018-06-02T12:05:22.071Z,29.97
2018-06-02T12:06:22.089Z,28.90
2018-06-02T12:07:22.111Z,27.92
2018-06-02T12:08:22.134Z,27.54
2018-06-02T12:09:22.160Z,27.35
2018-06-02T12:10:22.172Z,28.11
2018-06-02T12:11:22.227Z,29.57
2018-06-02T12:12:22.212Z,30.57
2018-06-02T12:13:22.233Z,31.23
2018-06-02T12:14:22.257Z,31.55
2018-06-02T12:15:22.283Z,32.24
2018-06-02T12:16:22.296Z,31.31
2018-06-02T12:17:22.319Z,30.62
2018-06-02T12:18:22.350Z,30.45
2018-06-02T12:19:22.371Z,30.49
2018-06-02T12:20:22.444Z,30.62
2018-06-02T12:21:22.422Z,31.42
2018-06-02T12:22:22.442Z,32.14
2018-06-02T12:23:22.519Z,31.45
2018-06-02T12:24:22.489Z,30.53
2018-06-02T12:25:22.504Z,29.94
2018-06-02T12:26:22.527Z,29.75
2018-06-02T12:27:22.553Z,28.97
2018-06-02T12:28:22.625Z,28.93
2018-06-02T12:29:22.590Z,28.84
2018-06-02T12:30:22.618Z,28.54
2018-06-02T12:31:22.631Z,28.54
2018-06-02T12:32:22.664Z,28.96
2018-06-02T12:33:22.673Z,29.70
2018-06-02T12:34:22.730Z,29.99
2018-06-02T12:35:22.723Z,29.81
2018-06-02T12:36:22.743Z,29.47
2018-06-02T12:37:22.761Z,28.96
2018-06-02T12:38:22.783Z,28.72
2018-06-02T12:39:22.803Z,28.32
2018-06-02T12:40:22.835Z,27.92
2018-06-02T12:41:22.847Z,27.58
2018-06-02T12:42:22.865Z,27.35
2018-06-02T12:43:22.889Z,28.16
2018-06-02T12:44:22.924Z,28.58
2018-06-02T12:45:22.926Z,27.88
2018-06-02T12:46:22.959Z,27.66
2018-06-02T12:47:22.966Z,27.39
2018-06-02T12:48:22.988Z,27.17
2018-06-02T12:49:23.010Z,27.16
2018-06-02T12:50:23.034Z,27.05
2018-06-02T12:51:23.045Z,27.58
2018-06-02T12:52:23.068Z,29.34
2018-06-02T12:53:23.103Z,29.59